createdAt,value
2023-04-13T00:01:09.067Z,5.80
2023-04-13T00:03:37.196Z,5.90
2023-04-13T00:06:06.849Z,5.90
2023-04-13T00:08:35.884Z,6.00
2023-04-13T00:11:08.134Z,5.90
2023-04-13T00:13:41.420Z,5.80
2023-04-13T00:16:19.996Z,5.80
2023-04-13T00:18:47.685Z,5.80
2023-04-13T00:21:16.872Z,5.80
2023-04-13T00:23:50.259Z,5.80
2023-04-13T00:26:20.590Z,5.80
2023-04-13T00:28:51.344Z,5.60
2023-04-13T00:31:21.343Z,5.60
2023-04-13T00:33:48.995Z,5.60
2023-04-13T00:36:17.200Z,5.60
2023-04-13T00:38:45.581Z,5.50
2023-04-13T00:41:13.006Z,5.40
2023-04-13T00:43:40.638Z,5.40
2023-04-13T00:46:08.894Z,5.40
2023-04-13T00:48:37.907Z,5.30
2023-04-13T00:51:05.609Z,5.30
2023-04-13T00:53:34.071Z,5.50
2023-04-13T00:56:05.934Z,5.50
2023-04-13T00:58:33.638Z,5.40
2023-04-13T01:01:02.089Z,5.40
2023-04-13T01:03:30.994Z,5.60
2023-04-13T01:06:13.953Z,5.50
2023-04-13T01:08:49.128Z,5.50
2023-04-13T01:11:32.952Z,5.60
2023-04-13T01:14:08.658Z,5.40
2023-04-13T01:16:41.700Z,5.40
2023-04-13T01:19:19.889Z,5.50
2023-04-13T01:21:54.457Z,5.40
2023-04-13T01:24:46.467Z,5.50
2023-04-13T01:27:20.462Z,5.40
2023-04-13T01:29:52.394Z,5.30
2023-04-13T01:32:20.611Z,5.30
2023-04-13T01:34:50.104Z,5.40
2023-04-13T01:37:18.472Z,5.20
2023-04-13T01:39:47.324Z,5.20
2023-04-13T01:42:16.058Z,5.20
2023-04-13T01:44:44.114Z,5.10
2023-04-13T01:47:20.788Z,5.00
2023-04-13T01:50:00.736Z,5.00
2023-04-13T01:52:29.230Z,5.10
2023-04-13T01:55:00.793Z,5.10
2023-04-13T01:57:34.376Z,5.10
2023-04-13T02:00:14.273Z,5.20
2023-04-13T02:02:43.342Z,5.20
2023-04-13T02:05:11.430Z,5.30
2023-04-13T02:07:42.837Z,5.30
2023-04-13T02:10:12.476Z,5.50
2023-04-13T02:12:43.574Z,5.40
2023-04-13T02:15:12.024Z,5.40
2023-04-13T02:17:39.979Z,5.50
2023-04-13T02:20:11.284Z,5.50
2023-04-13T02:22:42.100Z,5.50
2023-04-13T02:25:11.430Z,5.50
2023-04-13T02:27:43.940Z,5.50
2023-04-13T02:30:12.418Z,5.70
2023-04-13T02:32:41.516Z,5.70
2023-04-13T02:35:13.666Z,5.60
2023-04-13T02:37:41.164Z,5.60
2023-04-13T02:40:28.376Z,5.70
2023-04-13T02:42:57.738Z,5.70
2023-04-13T02:45:25.484Z,5.80
2023-04-13T02:47:52.609Z,5.70
2023-04-13T02:50:21.860Z,5.70
2023-04-13T02:52:49.182Z,5.70
2023-04-13T02:55:22.702Z,5.80
2023-04-13T03:00:43.717Z,5.80
2023-04-13T03:03:11.366Z,5.90
2023-04-13T03:05:40.868Z,6.00
2023-04-13T03:08:10.165Z,6.00
2023-04-13T03:10:40.667Z,6.10
2023-04-13T03:13:08.583Z,6.00
2023-04-13T03:15:35.860Z,5.90
2023-04-13T03:18:04.591Z,6.00
2023-04-13T03:20:35.077Z,6.00
2023-04-13T03:23:06.268Z,6.10
2023-04-13T03:25:40.134Z,6.20
2023-04-13T03:28:07.791Z,6.20
2023-04-13T03:30:35.424Z,6.20
2023-04-13T03:33:08.276Z,6.20
2023-04-13T03:35:36.039Z,6.20
2023-04-13T03:38:04.456Z,6.20
2023-04-13T03:40:31.476Z,6.20
2023-04-13T03:42:58.980Z,6.20
2023-04-13T03:45:27.342Z,6.30
2023-04-13T03:47:54.992Z,6.30
2023-04-13T03:50:22.095Z,6.20
2023-04-13T03:52:49.611Z,6.30
2023-04-13T03:55:18.792Z,6.30
2023-04-13T03:57:52.355Z,6.30
2023-04-13T04:00:19.759Z,6.40
2023-04-13T04:02:47.965Z,6.40
2023-04-13T04:05:16.759Z,6.50
2023-04-13T04:07:44.088Z,6.50
2023-04-13T04:10:11.923Z,6.60
2023-04-13T04:12:41.105Z,6.80
2023-04-13T04:15:12.033Z,6.80
2023-04-13T04:17:40.005Z,6.90
2023-04-13T04:20:09.571Z,6.90
2023-04-13T04:22:36.631Z,6.80
2023-04-13T04:25:05.052Z,6.90
2023-04-13T04:27:37.849Z,7.00
2023-04-13T04:30:14.398Z,7.00
2023-04-13T04:32:44.878Z,7.00
2023-04-13T04:35:12.226Z,7.00
2023-04-13T04:37:39.759Z,7.00
2023-04-13T04:40:12.889Z,7.00
2023-04-13T04:42:40.646Z,7.10
2023-04-13T04:45:10.501Z,7.10
2023-04-13T04:47:44.044Z,7.10
2023-04-13T04:50:12.872Z,7.20
2023-04-13T04:52:40.926Z,7.10
2023-04-13T04:55:09.092Z,7.00
2023-04-13T04:57:37.275Z,7.00
2023-04-13T05:00:15.641Z,7.00
2023-04-13T05:02:44.978Z,7.00
2023-04-13T05:05:12.257Z,7.10
2023-04-13T05:07:40.218Z,7.10
2023-04-13T05:10:09.991Z,7.00
2023-04-13T05:12:37.927Z,7.10
2023-04-13T05:15:19.194Z,7.10
2023-04-13T05:17:51.488Z,7.10
2023-04-13T05:20:19.991Z,7.10
2023-04-13T05:22:47.308Z,7.10
2023-04-13T05:25:15.109Z,7.10
2023-04-13T05:27:48.373Z,7.10
2023-04-13T05:30:16.250Z,7.20
2023-04-13T05:32:43.864Z,7.20
2023-04-13T05:35:13.022Z,7.20
2023-04-13T05:37:40.364Z,7.20
2023-04-13T05:40:12.466Z,7.30
2023-04-13T05:42:44.353Z,7.30
2023-04-13T05:45:12.390Z,7.30
2023-04-13T05:47:40.764Z,7.40
2023-04-13T05:50:10.872Z,7.40
2023-04-13T05:52:43.146Z,7.40
2023-04-13T05:55:12.432Z,7.60
2023-04-13T05:57:40.090Z,7.70
2023-04-13T06:00:17.113Z,7.80
2023-04-13T06:02:45.300Z,7.90
2023-04-13T06:05:14.565Z,8.00
2023-04-13T06:07:47.087Z,8.10
2023-04-13T06:10:20.911Z,8.10
2023-04-13T06:12:55.108Z,8.20
2023-04-13T06:15:22.461Z,8.20
2023-04-13T06:17:53.123Z,8.30
2023-04-13T06:20:24.526Z,8.30
2023-04-13T06:22:53.139Z,8.30
2023-04-13T06:25:20.747Z,8.40
2023-04-13T06:27:51.515Z,8.40
2023-04-13T06:30:21.834Z,8.40
2023-04-13T06:32:53.228Z,8.50
2023-04-13T06:35:20.626Z,8.50
2023-04-13T06:37:48.480Z,8.50
2023-04-13T06:40:20.541Z,8.50
2023-04-13T06:42:51.561Z,8.50
2023-04-13T06:45:22.571Z,8.50
2023-04-13T06:47:49.896Z,8.50
2023-04-13T06:50:24.038Z,8.50
2023-04-13T06:52:54.474Z,8.60
2023-04-13T06:55:23.948Z,8.60
2023-04-13T06:57:51.585Z,8.60
2023-04-13T07:00:29.452Z,8.60
2023-04-13T07:02:59.562Z,8.60
2023-04-13T07:05:31.295Z,8.60
2023-04-13T07:07:59.442Z,8.60
2023-04-13T07:10:33.419Z,8.70
2023-04-13T07:13:06.906Z,8.70
2023-04-13T07:15:36.937Z,8.70
2023-04-13T07:18:05.186Z,8.60
2023-04-13T07:20:36.484Z,8.70
2023-04-13T07:23:04.204Z,8.80
2023-04-13T07:25:34.852Z,8.80
2023-04-13T07:28:03.771Z,8.80
2023-04-13T07:30:34.577Z,8.90
2023-04-13T07:33:02.983Z,9.00
2023-04-13T07:35:30.682Z,9.00
2023-04-13T07:37:57.700Z,9.00
2023-04-13T07:40:25.275Z,9.00
2023-04-13T07:42:54.389Z,8.90
2023-04-13T07:45:21.633Z,8.90
2023-04-13T07:47:50.562Z,8.90
2023-04-13T07:50:18.502Z,9.00
2023-04-13T07:52:46.260Z,9.00
2023-04-13T07:55:13.859Z,9.10
2023-04-13T07:57:41.283Z,9.00
2023-04-13T08:00:12.844Z,9.00
2023-04-13T08:02:42.337Z,9.00
2023-04-13T08:05:12.817Z,9.00
2023-04-13T08:07:39.994Z,9.10
2023-04-13T08:10:09.937Z,9.10
2023-04-13T08:12:39.185Z,9.20
2023-04-13T08:15:11.188Z,9.40
2023-04-13T08:17:38.633Z,9.60
2023-04-13T08:20:08.631Z,9.60
2023-04-13T08:22:36.660Z,9.80
2023-04-13T08:25:07.239Z,9.80
2023-04-13T08:27:37.901Z,9.90
2023-04-13T08:30:08.382Z,10.10
2023-04-13T08:32:37.375Z,10.60
2023-04-13T08:35:10.094Z,10.50
2023-04-13T08:37:38.557Z,10.50
2023-04-13T08:40:08.401Z,10.40
2023-04-13T08:42:36.019Z,10.20
2023-04-13T08:45:09.625Z,10.10
2023-04-13T08:47:41.415Z,10.20
2023-04-13T08:50:10.132Z,10.30
2023-04-13T08:52:40.539Z,10.40
2023-04-13T08:55:09.728Z,10.40
2023-04-13T08:57:42.434Z,10.50
2023-04-13T09:00:17.534Z,10.50
2023-04-13T09:03:03.300Z,10.40
2023-04-13T09:05:35.627Z,10.60
2023-04-13T09:08:07.912Z,10.70
2023-04-13T09:10:36.198Z,10.60
2023-04-13T09:13:04.386Z,10.90
2023-04-13T09:15:32.686Z,11.10
2023-04-13T09:18:10.118Z,11.10
2023-04-13T09:20:38.299Z,11.10
2023-04-13T09:23:15.255Z,11.30
2023-04-13T09:25:43.271Z,11.30
2023-04-13T09:28:18.681Z,11.30
2023-04-13T09:30:46.475Z,11.30
2023-04-13T09:33:17.362Z,11.40
2023-04-13T09:35:49.457Z,11.30
2023-04-13T09:38:17.587Z,11.30
2023-04-13T09:40:55.519Z,11.20
2023-04-13T09:43:23.362Z,11.10
2023-04-13T09:45:51.309Z,11.40
2023-04-13T09:48:22.302Z,11.60
2023-04-13T09:50:59.628Z,11.70
2023-04-13T09:53:30.423Z,11.70
2023-04-13T09:55:59.573Z,11.60
2023-04-13T09:58:27.142Z,11.60
2023-04-13T10:00:55.470Z,11.60
2023-04-13T10:03:28.254Z,11.90
2023-04-13T10:06:00.224Z,12.10
2023-04-13T10:08:37.631Z,12.20
2023-04-13T10:11:13.110Z,12.40
2023-04-13T10:13:48.218Z,12.50
2023-04-13T10:16:54.410Z,12.40
2023-04-13T10:19:28.224Z,12.20
2023-04-13T10:21:56.702Z,12.10
2023-04-13T10:24:29.358Z,12.20
2023-04-13T10:26:58.694Z,12.20
2023-04-13T10:29:30.430Z,12.40
2023-04-13T10:32:05.567Z,12.90
2023-04-13T10:34:40.594Z,13.20
2023-04-13T10:37:19.866Z,13.40
2023-04-13T10:40:02.145Z,13.50
2023-04-13T10:42:51.854Z,13.40
2023-04-13T10:45:22.064Z,13.30
2023-04-13T10:47:49.813Z,13.00
2023-04-13T10:50:19.569Z,12.90
2023-04-13T10:53:03.639Z,12.70
2023-04-13T10:55:31.744Z,12.40
2023-04-13T10:58:01.825Z,12.20
2023-04-13T11:00:44.184Z,12.40
2023-04-13T11:03:21.477Z,12.70
2023-04-13T11:05:58.706Z,12.80
2023-04-13T11:08:39.358Z,12.80
2023-04-13T11:11:14.764Z,12.80
2023-04-13T11:13:47.248Z,12.90
2023-04-13T11:16:14.928Z,13.10
2023-04-13T11:18:46.903Z,13.00
2023-04-13T11:21:19.030Z,13.00
2023-04-13T11:23:52.446Z,12.80
2023-04-13T11:26:34.391Z,12.60
2023-04-13T11:29:03.622Z,12.80
2023-04-13T11:31:42.677Z,13.00
2023-04-13T11:34:13.197Z,13.10
2023-04-13T11:36:45.251Z,13.10
2023-04-13T11:39:15.299Z,13.20
2023-04-13T11:41:43.368Z,13.30
2023-04-13T11:44:18.079Z,13.40
2023-04-13T11:46:45.167Z,13.50
2023-04-13T11:49:12.935Z,13.50
2023-04-13T11:51:45.038Z,13.50
2023-04-13T11:54:12.567Z,13.50
2023-04-13T11:56:43.846Z,13.40
2023-04-13T11:59:11.419Z,13.40
2023-04-13T12:01:49.430Z,13.30
2023-04-13T12:04:17.691Z,13.20
2023-04-13T12:06:50.301Z,13.10
2023-04-13T12:09:23.850Z,13.20
2023-04-13T12:12:29.943Z,13.30
2023-04-13T12:17:44.014Z,13.50
2023-04-13T12:20:17.309Z,13.50
2023-04-13T12:22:55.074Z,13.40
2023-04-13T12:28:01.042Z,12.60
2023-04-13T12:30:29.352Z,12.30
2023-04-13T12:32:57.773Z,11.80
2023-04-13T12:35:24.963Z,11.80
2023-04-13T12:37:57.317Z,11.60
2023-04-13T12:40:24.873Z,11.50
2023-04-13T12:42:52.297Z,11.50
2023-04-13T12:45:26.037Z,11.50
2023-04-13T12:47:53.347Z,11.60
2023-04-13T12:50:20.414Z,11.80
2023-04-13T12:52:47.929Z,11.80
2023-04-13T12:55:16.939Z,11.60
2023-04-13T12:57:45.201Z,11.40
2023-04-13T13:00:15.771Z,11.40
2023-04-13T13:02:43.557Z,11.30
2023-04-13T13:05:11.164Z,11.10
2023-04-13T13:07:38.922Z,11.20
2023-04-13T13:10:25.799Z,11.20
2023-04-13T13:12:57.928Z,11.30
2023-04-13T13:15:25.386Z,11.40
2023-04-13T13:17:53.113Z,11.60
2023-04-13T13:20:20.679Z,11.70
2023-04-13T13:22:48.549Z,11.80
2023-04-13T13:25:16.364Z,12.00
2023-04-13T13:30:18.707Z,12.20
2023-04-13T13:32:46.260Z,12.40
2023-04-13T13:35:15.415Z,12.60
2023-04-13T13:37:42.969Z,12.90
2023-04-13T13:40:14.446Z,13.10
2023-04-13T13:42:51.192Z,13.20
2023-04-13T13:45:22.130Z,13.30
2023-04-13T13:47:54.755Z,13.70
2023-04-13T13:50:22.272Z,14.00
2023-04-13T13:53:02.469Z,14.20
2023-04-13T13:55:31.379Z,14.00
2023-04-13T13:57:58.463Z,14.00
2023-04-13T14:00:27.602Z,14.10
2023-04-13T14:02:58.551Z,14.10
2023-04-13T14:05:26.824Z,14.00
2023-04-13T14:07:53.856Z,13.80
2023-04-13T14:10:21.797Z,13.60
2023-04-13T14:12:50.738Z,13.60
2023-04-13T14:15:19.419Z,13.70
2023-04-13T14:18:02.128Z,13.60
2023-04-13T14:20:42.863Z,13.50
2023-04-13T14:23:10.126Z,13.50
2023-04-13T14:25:41.792Z,13.40
2023-04-13T14:28:12.126Z,13.20
2023-04-13T14:30:40.795Z,13.10
2023-04-13T14:33:09.793Z,13.00
2023-04-13T14:35:40.979Z,12.70
2023-04-13T14:38:12.167Z,12.50
2023-04-13T14:40:43.433Z,12.30
2023-04-13T14:43:13.385Z,12.20
2023-04-13T14:45:41.777Z,12.10
2023-04-13T14:48:10.264Z,11.90
2023-04-13T14:50:42.287Z,11.90
2023-04-13T14:53:09.408Z,12.00
2023-04-13T14:58:18.353Z,11.90
2023-04-13T15:00:46.337Z,11.80
2023-04-13T15:03:33.785Z,11.90
2023-04-13T15:08:53.206Z,12.10
2023-04-13T15:11:26.754Z,12.20
2023-04-13T15:13:54.355Z,12.30
2023-04-13T15:16:27.634Z,12.20
2023-04-13T15:18:57.035Z,12.30
2023-04-13T15:21:24.540Z,12.30
2023-04-13T15:23:58.117Z,12.30
2023-04-13T15:26:25.395Z,12.30
2023-04-13T15:28:53.053Z,12.40
2023-04-13T15:31:23.337Z,12.40
2023-04-13T15:33:51.211Z,12.40
2023-04-13T15:36:21.244Z,12.40
2023-04-13T15:38:52.046Z,12.50
2023-04-13T15:41:19.981Z,12.50
2023-04-13T15:43:53.048Z,12.60
2023-04-13T15:46:21.542Z,12.70
2023-04-13T15:48:52.024Z,12.80
2023-04-13T15:51:23.716Z,12.90
2023-04-13T15:53:51.553Z,12.90
2023-04-13T15:56:22.169Z,12.90
2023-04-13T15:58:50.369Z,12.90
2023-04-13T16:01:18.308Z,12.90
2023-04-13T16:03:46.101Z,12.90
2023-04-13T16:06:16.853Z,12.90
2023-04-13T16:08:46.117Z,12.80
2023-04-13T16:11:20.728Z,12.80
2023-04-13T16:13:50.241Z,13.00
2023-04-13T16:16:24.668Z,13.20
2023-04-13T16:18:52.595Z,13.40
2023-04-13T16:21:20.625Z,13.50
2023-04-13T16:23:52.053Z,13.50
2023-04-13T16:26:20.972Z,13.40
2023-04-13T16:28:51.293Z,13.20
2023-04-13T16:31:24.865Z,13.00
2023-04-13T16:33:52.079Z,13.00
2023-04-13T16:36:19.078Z,12.80
2023-04-13T16:38:48.401Z,12.70
2023-04-13T16:41:16.864Z,12.70
2023-04-13T16:43:44.471Z,12.70
2023-04-13T16:46:14.222Z,12.70
2023-04-13T16:48:41.939Z,12.70
2023-04-13T16:51:12.512Z,12.80
2023-04-13T16:53:44.647Z,12.90
2023-04-13T16:56:15.917Z,12.90
2023-04-13T16:58:44.122Z,13.00
2023-04-13T17:01:11.862Z,13.00
2023-04-13T17:03:39.087Z,13.10
2023-04-13T17:06:10.046Z,13.10
2023-04-13T17:08:37.078Z,13.10
2023-04-13T17:11:07.632Z,13.10
2023-04-13T17:13:37.010Z,13.00
2023-04-13T17:16:09.711Z,12.90
2023-04-13T17:18:36.997Z,12.80
2023-04-13T17:21:05.329Z,12.80
2023-04-13T17:23:32.941Z,12.60
2023-04-13T17:26:00.277Z,12.50
2023-04-13T17:28:27.855Z,12.50
2023-04-13T17:30:56.926Z,12.40
2023-04-13T17:33:24.515Z,12.30
2023-04-13T17:35:56.866Z,12.20
2023-04-13T17:38:23.956Z,12.10
2023-04-13T17:40:54.661Z,12.00
2023-04-13T17:43:22.453Z,11.90
2023-04-13T17:45:49.840Z,11.80
2023-04-13T17:48:24.691Z,11.70
2023-04-13T17:50:55.330Z,11.60
2023-04-13T17:53:29.687Z,11.50
2023-04-13T17:56:00.474Z,11.40
2023-04-13T17:58:30.864Z,11.40
2023-04-13T18:00:58.765Z,11.30
2023-04-13T18:03:28.021Z,11.30
2023-04-13T18:05:55.830Z,11.30
2023-04-13T18:08:30.933Z,11.20
2023-04-13T18:11:02.937Z,11.10
2023-04-13T18:13:34.398Z,11.00
2023-04-13T18:16:02.724Z,11.00
2023-04-13T18:18:31.760Z,11.00
2023-04-13T18:20:59.645Z,11.00
2023-04-13T18:23:28.065Z,10.90
2023-04-13T18:25:55.778Z,10.80
2023-04-13T18:28:26.653Z,10.80
2023-04-13T18:30:59.597Z,10.70
2023-04-13T18:33:27.463Z,10.70
2023-04-13T18:35:56.918Z,10.60
2023-04-13T18:38:24.338Z,10.60
2023-04-13T18:40:51.935Z,10.60
2023-04-13T18:43:25.773Z,10.60
2023-04-13T18:45:53.392Z,10.50
2023-04-13T18:48:23.327Z,10.50
2023-04-13T18:50:50.600Z,10.50
2023-04-13T18:53:22.639Z,10.50
2023-04-13T18:55:50.576Z,10.50
2023-04-13T18:58:21.538Z,10.40
2023-04-13T19:00:50.028Z,10.40
2023-04-13T19:03:20.588Z,10.30
2023-04-13T19:05:52.444Z,10.30
2023-04-13T19:08:23.836Z,10.20
2023-04-13T19:10:52.130Z,10.20
2023-04-13T19:13:22.318Z,10.20
2023-04-13T19:15:51.386Z,10.20
2023-04-13T19:18:21.576Z,10.10
2023-04-13T19:20:50.349Z,9.90
2023-04-13T19:23:20.837Z,9.70
2023-04-13T19:25:49.739Z,9.60
2023-04-13T19:28:17.729Z,9.60
2023-04-13T19:30:44.832Z,9.40
2023-04-13T19:33:12.866Z,9.20
2023-04-13T19:35:40.741Z,9.20
2023-04-13T19:38:14.230Z,9.10
2023-04-13T19:40:41.956Z,9.20
2023-04-13T19:43:10.683Z,9.20
2023-04-13T19:45:39.320Z,9.10
2023-04-13T19:48:06.722Z,9.00
2023-04-13T19:50:33.895Z,8.90
2023-04-13T19:53:11.226Z,8.80
2023-04-13T19:55:38.449Z,8.90
2023-04-13T19:58:06.607Z,8.90
2023-04-13T20:00:38.599Z,8.90
2023-04-13T20:03:06.897Z,8.80
2023-04-13T20:05:38.321Z,8.70
2023-04-13T20:08:06.152Z,8.60
2023-04-13T20:10:37.046Z,8.50
2023-04-13T20:13:04.078Z,8.40
2023-04-13T20:15:34.198Z,8.30
2023-04-13T20:18:07.030Z,8.40
2023-04-13T20:20:36.327Z,8.50
2023-04-13T20:23:04.671Z,8.50
2023-04-13T20:25:31.737Z,8.50
2023-04-13T20:27:58.742Z,8.40
2023-04-13T20:30:26.979Z,8.30
2023-04-13T20:32:54.579Z,8.30
2023-04-13T20:35:23.935Z,8.10
2023-04-13T20:37:52.147Z,8.10
2023-04-13T20:40:19.314Z,8.10
2023-04-13T20:42:50.290Z,8.20
2023-04-13T20:45:18.856Z,8.20
2023-04-13T20:47:55.983Z,8.10
2023-04-13T20:50:27.775Z,8.10
2023-04-13T20:52:56.724Z,8.10
2023-04-13T20:55:24.800Z,7.90
2023-04-13T20:57:52.473Z,7.90
2023-04-13T21:00:23.775Z,8.00
2023-04-13T21:02:53.546Z,7.80
2023-04-13T21:05:23.668Z,7.80
2023-04-13T21:07:52.669Z,7.80
2023-04-13T21:10:23.627Z,7.80
2023-04-13T21:12:50.714Z,7.80
2023-04-13T21:15:21.841Z,7.90
2023-04-13T21:17:49.080Z,7.70
2023-04-13T21:20:20.056Z,7.70
2023-04-13T21:22:47.932Z,7.60
2023-04-13T21:25:30.441Z,7.50
2023-04-13T21:27:58.307Z,7.30
2023-04-13T21:30:25.868Z,7.20
2023-04-13T21:32:52.863Z,7.40
2023-04-13T21:35:20.925Z,7.30
2023-04-13T21:37:51.138Z,7.40
2023-04-13T21:40:20.267Z,7.40
2023-04-13T21:42:47.310Z,7.50
2023-04-13T21:45:14.804Z,7.40
2023-04-13T21:47:41.877Z,7.20
2023-04-13T21:50:10.670Z,7.20
2023-04-13T21:52:37.848Z,7.10
2023-04-13T21:55:15.177Z,7.10
2023-04-13T21:57:51.214Z,7.10
2023-04-13T22:00:19.364Z,7.10
2023-04-13T22:02:47.150Z,7.00
2023-04-13T22:05:17.132Z,7.00
2023-04-13T22:07:44.470Z,7.00
2023-04-13T22:10:11.893Z,7.00
2023-04-13T22:12:50.234Z,7.10
2023-04-13T22:15:25.636Z,7.20
2023-04-13T22:17:56.321Z,7.30
2023-04-13T22:20:23.906Z,7.20
2023-04-13T22:22:51.518Z,7.10
2023-04-13T22:25:19.366Z,7.10
2023-04-13T22:27:51.595Z,7.20
2023-04-13T22:30:20.318Z,7.20
2023-04-13T22:32:51.043Z,7.20
2023-04-13T22:35:22.138Z,7.20
2023-04-13T22:37:49.259Z,7.30
2023-04-13T22:40:37.520Z,7.30
2023-04-13T22:43:06.647Z,7.30
2023-04-13T22:45:37.019Z,7.20
2023-04-13T22:48:05.337Z,7.20
2023-04-13T22:50:32.441Z,7.20
2023-04-13T22:53:02.456Z,7.10
2023-04-13T22:55:30.358Z,7.10
2023-04-13T22:58:01.784Z,7.00
2023-04-13T23:00:30.665Z,7.10
2023-04-13T23:03:13.722Z,7.00
2023-04-13T23:05:41.069Z,7.00
2023-04-13T23:08:08.678Z,6.90
2023-04-13T23:10:36.373Z,6.90
2023-04-13T23:13:09.448Z,7.00
2023-04-13T23:15:39.797Z,7.00
2023-04-13T23:18:13.396Z,7.00
2023-04-13T23:20:40.441Z,6.90
2023-04-13T23:23:14.165Z,6.90
2023-04-13T23:25:41.920Z,6.90
2023-04-13T23:28:09.014Z,6.70
2023-04-13T23:30:37.890Z,6.60
2023-04-13T23:33:05.043Z,6.60
2023-04-13T23:35:32.141Z,6.50
2023-04-13T23:40:45.394Z,6.50
2023-04-13T23:43:12.575Z,6.60
2023-04-13T23:45:41.661Z,6.60
2023-04-13T23:48:09.053Z,6.60
2023-04-13T23:50:36.209Z,6.50
2023-04-13T23:53:04.192Z,6.50
2023-04-13T23:55:31.679Z,6.50
2023-04-13T23:57:58.750Z,6.50
